createdAt,value
2018-03-28T00:02:03.330Z,100408.97
2018-03-28T00:04:31.304Z,100405.33
2018-03-28T00:06:58.971Z,100402.34
2018-03-28T00:09:26.572Z,100396.69
2018-03-28T00:11:54.211Z,100404.92
2018-03-28T00:14:21.790Z,100399.37
2018-03-28T00:16:49.510Z,100396.09
2018-03-28T00:19:17.197Z,100393.39
2018-03-28T00:21:44.940Z,100393.39
2018-03-28T00:24:12.863Z,100389.20
2018-03-28T00:26:40.453Z,100388.52
2018-03-28T00:29:08.073Z,100387.73
2018-03-28T00:31:35.718Z,100385.03
2018-03-28T00:34:03.373Z,100382.05
2018-03-28T00:36:31.354Z,100378.53
2018-03-28T00:38:58.947Z,100378.38
2018-03-28T00:41:27.289Z,100379.60
2018-03-28T00:43:54.930Z,100379.60
2018-03-28T00:46:22.513Z,100370.84
2018-03-28T00:48:50.513Z,100377.70
2018-03-28T00:51:36.993Z,100373.09
2018-03-28T00:54:04.665Z,100372.16
2018-03-28T00:56:32.948Z,100365.98
2018-03-28T00:59:00.816Z,100361.78
2018-03-28T01:01:28.417Z,100370.28
2018-03-28T01:03:56.377Z,100360.85
2018-03-28T01:06:23.969Z,100369.20
2018-03-28T01:08:51.870Z,100362.72
2018-03-28T01:11:19.481Z,100366.35
2018-03-28T01:13:47.404Z,100369.98
2018-03-28T01:16:15.066Z,100373.42
2018-03-28T01:18:42.664Z,100372.70
2018-03-28T01:21:10.596Z,100367.88
2018-03-28T01:23:38.305Z,100364.32
2018-03-28T01:26:05.930Z,100364.20
2018-03-28T01:28:33.828Z,100368.24
2018-03-28T01:31:01.834Z,100371.06
2018-03-28T01:33:29.497Z,100370.13
2018-03-28T01:35:57.148Z,100375.21
2018-03-28T01:38:24.767Z,100370.08
2018-03-28T01:40:52.718Z,100368.98
2018-03-28T01:43:20.313Z,100367.64
2018-03-28T01:45:48.264Z,100366.40
2018-03-28T01:48:15.886Z,100372.32
2018-03-28T01:50:43.877Z,100370.34
2018-03-28T01:53:11.517Z,100375.98
2018-03-28T01:55:39.517Z,100372.88
2018-03-28T01:58:07.109Z,100373.14
2018-03-28T02:00:34.783Z,100367.48
2018-03-28T02:03:02.363Z,100366.55
2018-03-28T02:05:29.957Z,100366.40
2018-03-28T02:07:57.562Z,100362.73
2018-03-28T02:10:25.151Z,100362.05
2018-03-28T02:12:52.775Z,100361.95
2018-03-28T02:15:20.705Z,100355.66
2018-03-28T02:17:48.575Z,100354.56
2018-03-28T02:20:16.509Z,100350.75
2018-03-28T02:22:44.140Z,100346.48
2018-03-28T02:25:12.044Z,100344.36
2018-03-28T02:27:40.019Z,100336.27
2018-03-28T02:30:07.675Z,100326.34
2018-03-28T02:32:35.271Z,100331.48
2018-03-28T02:35:02.929Z,100327.89
2018-03-28T02:37:30.794Z,100326.77
2018-03-28T02:39:58.422Z,100323.73
2018-03-28T02:42:26.429Z,100328.56
2018-03-28T02:44:54.303Z,100329.54
2018-03-28T02:47:21.904Z,100327.44
2018-03-28T02:49:49.926Z,100321.53
2018-03-28T02:52:17.933Z,100325.72
2018-03-28T02:54:45.608Z,100320.33
2018-03-28T02:57:13.536Z,100325.23
2018-03-28T02:59:41.120Z,100314.09
2018-03-28T03:02:09.159Z,100307.50
2018-03-28T03:04:37.054Z,100310.65
2018-03-28T03:07:04.744Z,100312.11
2018-03-28T03:09:32.389Z,100306.86
2018-03-28T03:11:59.972Z,100310.91
2018-03-28T03:14:27.566Z,100304.84
2018-03-28T03:16:55.363Z,100309.61
2018-03-28T03:19:22.998Z,100305.64
2018-03-28T03:21:50.590Z,100301.47
2018-03-28T03:24:18.349Z,100305.37
2018-03-28T03:26:46.014Z,100304.24
2018-03-28T03:29:13.894Z,100304.24
2018-03-28T03:31:41.552Z,100303.97
2018-03-28T03:34:09.484Z,100300.72
2018-03-28T03:36:37.095Z,100295.73
2018-03-28T03:39:04.770Z,100293.42
2018-03-28T03:41:32.425Z,100295.06
2018-03-28T03:44:00.013Z,100292.83
2018-03-28T03:46:27.855Z,100292.04
2018-03-28T03:48:55.485Z,100294.81
2018-03-28T03:51:23.065Z,100290.65
2018-03-28T03:53:50.715Z,100292.63
2018-03-28T03:56:18.366Z,100294.28
2018-03-28T03:58:46.038Z,100290.23
2018-03-28T04:01:13.635Z,100298.17
2018-03-28T04:03:41.537Z,100298.73
2018-03-28T04:06:09.126Z,100299.93
2018-03-28T04:08:36.715Z,100293.56
2018-03-28T04:11:04.394Z,100299.78
2018-03-28T04:13:31.985Z,100294.23
2018-03-28T04:15:59.578Z,100297.72
2018-03-28T04:18:27.924Z,100299.48
2018-03-28T04:20:55.623Z,100300.72
2018-03-28T04:23:23.228Z,100302.22
2018-03-28T04:25:50.880Z,100295.22
2018-03-28T04:28:18.774Z,100299.16
2018-03-28T04:30:46.643Z,100297.55
2018-03-28T04:33:14.361Z,100290.02
2018-03-28T04:35:42.022Z,100291.27
2018-03-28T04:38:09.604Z,100294.97
2018-03-28T04:40:37.464Z,100292.13
2018-03-28T04:43:05.040Z,100289.33
2018-03-28T04:45:32.700Z,100292.32
2018-03-28T04:48:00.291Z,100290.35
2018-03-28T04:50:27.895Z,100283.77
2018-03-28T04:52:55.524Z,100287.13
2018-03-28T04:55:23.247Z,100288.48
2018-03-28T04:57:50.904Z,100290.50
2018-03-28T05:00:18.505Z,100285.94
2018-03-28T05:02:46.765Z,100285.52
2018-03-28T05:05:14.686Z,100284.02
2018-03-28T05:07:42.369Z,100284.85
2018-03-28T05:10:10.329Z,100280.81
2018-03-28T05:12:38.359Z,100282.08
2018-03-28T05:15:05.947Z,100280.63
2018-03-28T05:17:33.593Z,100283.22
2018-03-28T05:20:01.429Z,100274.61
2018-03-28T05:22:29.087Z,100280.52
2018-03-28T05:24:57.061Z,100277.77
2018-03-28T05:27:24.632Z,100282.21
2018-03-28T05:29:52.285Z,100283.94
2018-03-28T05:32:20.152Z,100282.59
2018-03-28T05:34:47.747Z,100277.61
2018-03-28T05:37:15.441Z,100271.62
2018-03-28T05:39:43.344Z,100261.31
2018-03-28T05:42:10.931Z,100263.25
2018-03-28T05:44:39.036Z,100258.38
2018-03-28T05:47:06.681Z,100257.23
2018-03-28T05:49:34.337Z,100250.35
2018-03-28T05:52:02.227Z,100253.27
2018-03-28T05:54:29.832Z,100262.02
2018-03-28T05:56:57.795Z,100255.92
2018-03-28T05:59:25.492Z,100250.53
2018-03-28T06:01:53.121Z,100254.68
2018-03-28T06:04:20.713Z,100260.59
2018-03-28T06:06:48.326Z,100253.18
2018-03-28T06:09:15.904Z,100254.16
2018-03-28T06:11:43.624Z,100256.59
2018-03-28T06:14:11.226Z,100257.22
2018-03-28T06:16:38.818Z,100258.42
2018-03-28T06:19:06.615Z,100251.45
2018-03-28T06:21:34.519Z,100254.78
2018-03-28T06:24:02.117Z,100250.74
2018-03-28T06:26:29.738Z,100252.70
2018-03-28T06:28:57.424Z,100254.37
2018-03-28T06:31:25.241Z,100251.48
2018-03-28T06:33:52.824Z,100249.20
2018-03-28T06:36:20.779Z,100249.45
2018-03-28T06:38:48.524Z,100247.70
2018-03-28T06:41:17.007Z,100239.56
2018-03-28T06:43:44.922Z,100240.76
2018-03-28T06:46:12.527Z,100232.09
2018-03-28T06:48:40.174Z,100239.88
2018-03-28T06:51:07.784Z,100232.98
2018-03-28T06:53:35.463Z,100225.05
2018-03-28T06:56:03.830Z,100222.35
2018-03-28T06:58:31.712Z,100220.59
2018-03-28T07:00:59.320Z,100225.73
2018-03-28T07:03:26.950Z,100220.03
2018-03-28T07:05:54.570Z,100222.88
2018-03-28T07:08:22.162Z,100225.27
2018-03-28T07:10:49.824Z,100220.59
2018-03-28T07:13:17.427Z,100216.76
2018-03-28T07:15:45.026Z,100222.73
2018-03-28T07:18:12.637Z,100224.28
2018-03-28T07:20:40.236Z,100216.12
2018-03-28T07:23:07.876Z,100221.58
2018-03-28T07:25:35.497Z,100225.62
2018-03-28T07:28:03.126Z,100230.08
2018-03-28T07:30:30.743Z,100224.38
2018-03-28T07:32:58.426Z,100221.69
2018-03-28T07:35:26.014Z,100214.80
2018-03-28T07:37:53.614Z,100214.75
2018-03-28T07:40:21.283Z,100222.25
2018-03-28T07:42:48.937Z,100215.58
2018-03-28T07:45:16.775Z,100216.15
2018-03-28T07:47:44.442Z,100221.95
2018-03-28T07:50:12.128Z,100215.58
2018-03-28T07:52:39.701Z,100212.66
2018-03-28T07:55:07.824Z,100204.16
2018-03-28T07:57:35.456Z,100201.62
2018-03-28T08:00:03.087Z,100201.88
2018-03-28T08:02:30.781Z,100206.02
2018-03-28T08:04:58.393Z,100206.50
2018-03-28T08:07:25.988Z,100193.69
2018-03-28T08:09:53.646Z,100194.32
2018-03-28T08:12:21.347Z,100188.52
2018-03-28T08:14:49.466Z,100186.23
2018-03-28T08:17:17.158Z,100179.03
2018-03-28T08:19:45.089Z,100182.70
2018-03-28T08:22:12.738Z,100176.84
2018-03-28T08:24:40.615Z,100179.44
2018-03-28T08:27:08.231Z,100179.03
2018-03-28T08:29:35.828Z,100170.53
2018-03-28T08:32:03.480Z,100174.98
2018-03-28T08:34:31.144Z,100170.00
2018-03-28T08:36:58.791Z,100172.08
2018-03-28T08:39:26.386Z,100170.83
2018-03-28T08:41:54.054Z,100165.74
2018-03-28T08:44:22.420Z,100168.88
2018-03-28T08:46:50.040Z,100172.44
2018-03-28T08:49:17.630Z,100164.03
2018-03-28T08:51:45.247Z,100162.32
2018-03-28T08:54:12.862Z,100160.61
2018-03-28T08:56:40.468Z,100167.30
2018-03-28T08:59:08.321Z,100173.42
2018-03-28T09:01:35.986Z,100167.03
2018-03-28T09:04:03.613Z,100168.42
2018-03-28T09:06:31.205Z,100169.16
2018-03-28T09:08:59.048Z,100166.81
2018-03-28T09:11:27.481Z,100161.77
2018-03-28T09:13:55.215Z,100165.60
2018-03-28T09:16:23.034Z,100158.84
2018-03-28T09:18:50.659Z,100155.20
2018-03-28T09:21:18.277Z,100155.09
2018-03-28T09:23:45.901Z,100156.78
2018-03-28T09:26:13.503Z,100152.42
2018-03-28T09:28:41.494Z,100156.26
2018-03-28T09:31:09.111Z,100151.95
2018-03-28T09:33:36.998Z,100147.25
2018-03-28T09:36:04.971Z,100146.95
2018-03-28T09:38:32.634Z,100155.83
2018-03-28T09:41:00.318Z,100148.96
2018-03-28T09:43:27.973Z,100144.47
2018-03-28T09:45:55.915Z,100147.23
2018-03-28T09:48:23.516Z,100158.38
2018-03-28T09:50:51.120Z,100149.82
2018-03-28T09:53:18.865Z,100152.08
2018-03-28T09:55:46.519Z,100150.37
2018-03-28T09:58:14.116Z,100147.22
2018-03-28T10:00:41.798Z,100153.13
2018-03-28T10:03:12.379Z,100150.44
2018-03-28T10:05:40.879Z,100146.44
2018-03-28T10:08:08.476Z,100141.93
2018-03-28T10:10:36.383Z,100144.41
2018-03-28T10:13:04.226Z,100148.23
2018-03-28T10:15:31.884Z,100144.59
2018-03-28T10:17:59.738Z,100146.52
2018-03-28T10:20:27.603Z,100141.33
2018-03-28T10:22:55.235Z,100131.17
2018-03-28T10:25:23.132Z,100136.83
2018-03-28T10:27:50.725Z,100135.31
2018-03-28T10:30:18.358Z,100130.06
2018-03-28T10:32:46.289Z,100127.52
2018-03-28T10:35:14.190Z,100125.45
2018-03-28T10:37:41.862Z,100121.63
2018-03-28T10:40:09.748Z,100113.98
2018-03-28T10:42:37.347Z,100112.31
2018-03-28T10:45:04.970Z,100109.31
2018-03-28T10:47:32.646Z,100109.78
2018-03-28T10:50:00.256Z,100103.98
2018-03-28T10:52:27.870Z,100107.35
2018-03-28T10:54:55.478Z,100100.50
2018-03-28T10:57:23.563Z,100103.76
2018-03-28T10:59:51.172Z,100101.39
2018-03-28T11:02:18.785Z,100103.46
2018-03-28T11:04:46.421Z,100105.56
2018-03-28T11:07:14.041Z,100103.08
2018-03-28T11:09:41.672Z,100105.25
2018-03-28T11:12:09.278Z,100105.22
2018-03-28T11:14:36.909Z,100101.81
2018-03-28T11:17:04.757Z,100106.41
2018-03-28T11:19:32.620Z,100109.53
2018-03-28T11:22:00.596Z,100103.38
2018-03-28T11:24:28.273Z,100102.11
2018-03-28T11:26:55.899Z,100098.59
2018-03-28T11:29:23.615Z,100104.38
2018-03-28T11:31:51.640Z,100102.32
2018-03-28T11:34:19.248Z,100087.87
2018-03-28T11:36:46.918Z,100084.21
2018-03-28T11:39:14.566Z,100082.36
2018-03-28T11:41:42.159Z,100077.40
2018-03-28T11:44:10.184Z,100073.05
2018-03-28T11:46:37.814Z,100075.34
2018-03-28T11:49:05.414Z,100078.20
2018-03-28T11:51:33.051Z,100070.08
2018-03-28T11:54:00.650Z,100066.95
2018-03-28T11:56:28.371Z,100062.80
2018-03-28T11:58:55.962Z,100059.11
2018-03-28T12:01:23.564Z,100058.23
2018-03-28T12:03:51.216Z,100051.91
2018-03-28T12:06:18.806Z,100045.53
2018-03-28T12:08:46.427Z,100041.38
2018-03-28T12:11:14.057Z,100041.63
2018-03-28T12:13:41.655Z,100038.67
2018-03-28T12:16:09.467Z,100038.59
2018-03-28T12:18:37.103Z,100032.52
2018-03-28T12:21:04.727Z,100016.74
2018-03-28T12:23:32.305Z,100017.44
2018-03-28T12:26:00.250Z,100010.64
2018-03-28T12:28:28.667Z,100010.14
2018-03-28T12:30:56.302Z,100005.61
2018-03-28T12:33:23.955Z,100001.55
2018-03-28T12:35:51.685Z,100003.92
2018-03-28T12:38:19.556Z,99994.95
2018-03-28T12:40:47.169Z,99986.56
2018-03-28T12:43:14.787Z,99983.80
2018-03-28T12:45:42.401Z,99981.28
2018-03-28T12:48:10.058Z,99976.09
2018-03-28T12:50:38.204Z,99970.67
2018-03-28T12:53:05.817Z,99969.14
2018-03-28T12:55:33.579Z,99962.10
2018-03-28T12:58:01.123Z,99958.89
2018-03-28T13:00:28.728Z,99952.56
2018-03-28T13:02:56.597Z,99949.59
2018-03-28T13:05:24.323Z,99944.41
2018-03-28T13:07:51.978Z,99937.81
2018-03-28T13:10:19.888Z,99937.31
2018-03-28T13:12:47.502Z,99931.53
2018-03-28T13:15:15.067Z,99921.83
2018-03-28T13:17:43.079Z,99912.67
2018-03-28T13:20:10.698Z,99905.55
2018-03-28T13:22:38.315Z,99899.19
2018-03-28T13:25:06.275Z,99893.11
2018-03-28T13:27:33.864Z,99894.05
2018-03-28T13:30:01.562Z,99886.28
2018-03-28T13:32:29.237Z,99883.72
2018-03-28T13:34:57.274Z,99875.92
2018-03-28T13:37:24.858Z,99876.48
2018-03-28T13:39:52.444Z,99873.39
2018-03-28T13:42:21.005Z,99863.87
2018-03-28T13:44:48.627Z,99867.62
2018-03-28T13:47:16.259Z,99864.08
2018-03-28T13:49:43.940Z,99871.03
2018-03-28T13:52:11.796Z,99867.23
2018-03-28T13:54:39.563Z,99870.12
2018-03-28T13:57:07.431Z,99868.32
2018-03-28T13:59:35.084Z,99868.03
2018-03-28T14:02:02.683Z,99866.17
2018-03-28T14:04:30.607Z,99857.05
2018-03-28T14:06:58.292Z,99850.94
2018-03-28T14:09:26.144Z,99855.25
2018-03-28T14:11:53.857Z,99856.19
2018-03-28T14:14:21.450Z,99852.14
2018-03-28T14:16:49.033Z,99848.31
2018-03-28T14:19:16.624Z,99844.52
2018-03-28T14:21:44.229Z,99835.91
2018-03-28T14:24:11.929Z,99829.53
2018-03-28T14:26:39.507Z,99826.09
2018-03-28T14:29:07.432Z,99817.88
2018-03-28T14:31:35.747Z,99818.98
2018-03-28T14:34:03.536Z,99811.27
2018-03-28T14:36:31.158Z,99804.02
2018-03-28T14:38:59.270Z,99800.87
2018-03-28T14:41:27.506Z,99804.69
2018-03-28T14:43:55.379Z,99797.83
2018-03-28T14:46:23.038Z,99788.72
2018-03-28T14:48:50.669Z,99784.28
2018-03-28T14:51:18.259Z,99786.75
2018-03-28T14:53:46.035Z,99780.09
2018-03-28T14:56:13.658Z,99765.98
2018-03-28T14:58:41.641Z,99764.23
2018-03-28T15:01:09.288Z,99754.39
2018-03-28T15:03:36.892Z,99753.03
2018-03-28T15:06:04.813Z,99753.80
2018-03-28T15:08:33.361Z,99745.86
2018-03-28T15:11:00.977Z,99743.89
2018-03-28T15:13:28.867Z,99741.92
2018-03-28T15:15:56.464Z,99736.65
2018-03-28T15:18:24.098Z,99729.44
2018-03-28T15:20:51.693Z,99727.69
2018-03-28T15:23:19.282Z,99723.52
2018-03-28T15:25:47.669Z,99711.05
2018-03-28T15:28:15.255Z,99701.55
2018-03-28T15:30:42.855Z,99705.55
2018-03-28T15:33:10.932Z,99696.00
2018-03-28T15:35:38.521Z,99688.41
2018-03-28T15:38:06.116Z,99683.17
2018-03-28T15:40:33.757Z,99684.53
2018-03-28T15:43:02.099Z,99679.09
2018-03-28T15:45:30.093Z,99672.83
2018-03-28T15:47:57.719Z,99666.49
2018-03-28T15:50:25.310Z,99668.80
2018-03-28T15:52:53.096Z,99668.65
2018-03-28T15:55:20.742Z,99666.07
2018-03-28T15:57:48.405Z,99656.22
2018-03-28T16:00:16.293Z,99656.96
2018-03-28T16:02:43.951Z,99662.69
2018-03-28T16:05:11.959Z,99652.67
2018-03-28T16:07:39.554Z,99648.91
2018-03-28T16:10:07.142Z,99645.03
2018-03-28T16:12:34.843Z,99641.84
2018-03-28T16:15:02.498Z,99651.38
2018-03-28T16:17:30.152Z,99644.42
2018-03-28T16:19:57.781Z,99643.48
2018-03-28T16:22:25.432Z,99637.30
2018-03-28T16:24:53.098Z,99632.93
2018-03-28T16:27:20.728Z,99628.64
2018-03-28T16:29:48.437Z,99624.58
2018-03-28T16:32:16.458Z,99621.73
2018-03-28T16:34:44.139Z,99613.42
2018-03-28T16:37:11.846Z,99608.42
2018-03-28T16:39:39.504Z,99603.97
2018-03-28T16:42:07.101Z,99607.81
2018-03-28T16:44:34.709Z,99596.45
2018-03-28T16:47:02.338Z,99596.61
2018-03-28T16:49:30.341Z,99600.49
2018-03-28T16:51:58.603Z,99600.84
2018-03-28T16:54:26.180Z,99592.42
2018-03-28T16:56:53.774Z,99590.83
2018-03-28T16:59:21.783Z,99595.17
2018-03-28T17:01:49.776Z,99594.23
2018-03-28T17:04:17.742Z,99596.93
2018-03-28T17:06:45.348Z,99585.89
2018-03-28T17:09:13.080Z,99581.23
2018-03-28T17:11:41.145Z,99570.59
2018-03-28T17:14:08.813Z,99570.51
2018-03-28T17:16:36.485Z,99566.70
2018-03-28T17:19:04.135Z,99568.69
2018-03-28T17:21:31.799Z,99566.40
2018-03-28T17:23:59.403Z,99564.73
2018-03-28T17:26:27.015Z,99569.81
2018-03-28T17:28:54.639Z,99564.88
2018-03-28T17:31:22.570Z,99564.95
2018-03-28T17:33:50.221Z,99569.41
2018-03-28T17:36:17.854Z,99559.81
2018-03-28T17:38:45.421Z,99563.08
2018-03-28T17:41:13.118Z,99560.54
2018-03-28T17:43:40.718Z,99561.48
2018-03-28T17:46:08.292Z,99564.81
2018-03-28T17:48:36.385Z,99564.33
2018-03-28T17:51:03.971Z,99563.45
2018-03-28T17:53:31.613Z,99557.28
2018-03-28T17:55:59.574Z,99556.72
2018-03-28T17:58:27.152Z,99547.77
2018-03-28T18:00:54.774Z,99551.73
2018-03-28T18:03:22.418Z,99556.00
2018-03-28T18:05:50.039Z,99553.55
2018-03-28T18:08:17.624Z,99555.77
2018-03-28T18:10:45.281Z,99551.27
2018-03-28T18:13:12.972Z,99555.93
2018-03-28T18:15:40.952Z,99554.42
2018-03-28T18:18:08.551Z,99550.94
2018-03-28T18:20:36.503Z,99542.28
2018-03-28T18:23:04.249Z,99545.21
2018-03-28T18:25:31.873Z,99542.06
2018-03-28T18:27:59.791Z,99544.84
2018-03-28T18:30:27.476Z,99551.66
2018-03-28T18:32:55.069Z,99553.31
2018-03-28T18:35:22.691Z,99553.63
2018-03-28T18:37:50.264Z,99544.99
2018-03-28T18:40:17.908Z,99547.42
2018-03-28T18:42:45.492Z,99547.89
2018-03-28T18:45:13.169Z,99545.92
2018-03-28T18:47:41.266Z,99545.82
2018-03-28T18:50:08.920Z,99541.39
2018-03-28T18:52:37.391Z,99539.69
2018-03-28T18:55:05.078Z,99543.95
2018-03-28T18:57:32.976Z,99550.13
2018-03-28T19:00:00.559Z,99557.09
2018-03-28T19:02:28.512Z,99550.48
2018-03-28T19:04:56.120Z,99546.14
2018-03-28T19:07:23.814Z,99547.14
2018-03-28T19:09:51.519Z,99545.09
2018-03-28T19:12:19.185Z,99548.81
2018-03-28T19:14:46.916Z,99544.13
2018-03-28T19:17:14.835Z,99550.45
2018-03-28T19:19:42.748Z,99557.34
2018-03-28T19:22:10.411Z,99558.28
2018-03-28T19:24:38.023Z,99557.25
2018-03-28T19:27:05.677Z,99553.75
2018-03-28T19:29:33.282Z,99559.52
2018-03-28T19:32:00.890Z,99567.28
2018-03-28T19:34:28.552Z,99559.61
2018-03-28T19:36:56.148Z,99566.41
2018-03-28T19:39:23.824Z,99566.41
2018-03-28T19:41:51.482Z,99578.27
2018-03-28T19:44:19.154Z,99574.70
2018-03-28T19:46:46.763Z,99576.73
2018-03-28T19:49:14.707Z,99577.92
2018-03-28T19:51:42.389Z,99586.85
2018-03-28T19:54:10.227Z,99591.52
2018-03-28T19:56:37.951Z,99601.50
2018-03-28T19:59:05.516Z,99604.78
2018-03-28T20:01:33.139Z,99609.31
2018-03-28T20:04:01.190Z,99605.70
2018-03-28T20:06:28.796Z,99614.17
2018-03-28T20:08:56.385Z,99617.69
2018-03-28T20:11:24.072Z,99616.67
2018-03-28T20:13:51.882Z,99619.73
2018-03-28T20:16:19.492Z,99627.56
2018-03-28T20:18:47.371Z,99629.37
2018-03-28T20:21:15.391Z,99621.13
2018-03-28T20:23:42.953Z,99629.17
2018-03-28T20:26:10.679Z,99634.41
2018-03-28T20:28:38.551Z,99640.03
2018-03-28T20:31:06.135Z,99649.72
2018-03-28T20:33:33.706Z,99648.53
2018-03-28T20:36:01.313Z,99651.01
2018-03-28T20:38:29.394Z,99658.27
2018-03-28T20:40:57.254Z,99661.20
2018-03-28T20:43:24.918Z,99667.61
2018-03-28T20:45:52.598Z,99669.28
2018-03-28T20:48:20.546Z,99674.20
2018-03-28T20:50:48.595Z,99673.86
2018-03-28T20:53:16.251Z,99672.90
2018-03-28T20:55:43.842Z,99676.58
2018-03-28T20:58:11.472Z,99683.02
2018-03-28T21:00:39.060Z,99687.81
2018-03-28T21:03:07.125Z,99691.11
2018-03-28T21:05:34.775Z,99692.31
2018-03-28T21:08:02.369Z,99692.48
2018-03-28T21:10:29.973Z,99701.36
2018-03-28T21:12:57.578Z,99700.21
2018-03-28T21:15:25.528Z,99706.58
2018-03-28T21:17:53.127Z,99711.52
2018-03-28T21:20:20.784Z,99706.41
2018-03-28T21:23:02.363Z,99707.09
2018-03-28T21:25:31.852Z,99725.17
2018-03-28T21:28:00.139Z,99724.57
2018-03-28T21:30:28.880Z,99721.48
2018-03-28T21:32:57.010Z,99726.85
2018-03-28T21:35:24.810Z,99734.09
2018-03-28T21:37:52.456Z,99734.73
2018-03-28T21:40:20.111Z,99743.85
2018-03-28T21:42:47.839Z,99735.20
2018-03-28T21:45:15.827Z,99737.14
2018-03-28T21:47:43.412Z,99737.97
2018-03-28T21:50:11.126Z,99737.73
2018-03-28T21:52:38.808Z,99736.03
2018-03-28T21:55:06.385Z,99741.28
2018-03-28T21:57:34.083Z,99741.06
2018-03-28T22:00:01.912Z,99756.58
2018-03-28T22:02:29.516Z,99753.71
2018-03-28T22:04:57.193Z,99759.77
2018-03-28T22:07:24.756Z,99773.06
2018-03-28T22:09:52.334Z,99774.38
2018-03-28T22:12:20.044Z,99781.70
2018-03-28T22:14:47.976Z,99779.33
2018-03-28T22:17:15.585Z,99794.66
2018-03-28T22:19:43.271Z,99800.06
2018-03-28T22:22:10.858Z,99796.25
2018-03-28T22:24:38.535Z,99801.34
2018-03-28T22:27:06.195Z,99802.22
2018-03-28T22:29:34.165Z,99801.19
2018-03-28T22:32:01.746Z,99802.15
2018-03-28T22:34:29.330Z,99804.16
2018-03-28T22:36:57.661Z,99804.53
2018-03-28T22:39:25.265Z,99812.95
2018-03-28T22:41:52.929Z,99812.06
2018-03-28T22:44:20.713Z,99814.19
2018-03-28T22:46:48.374Z,99821.97
2018-03-28T22:49:16.003Z,99827.15
2018-03-28T22:51:43.634Z,99838.37
2018-03-28T22:54:11.284Z,99838.25
2018-03-28T22:56:38.894Z,99843.91
2018-03-28T22:59:06.497Z,99845.80
2018-03-28T23:01:34.493Z,99850.05
2018-03-28T23:04:02.065Z,99855.56
2018-03-28T23:06:29.652Z,99854.98
2018-03-28T23:08:57.286Z,99862.03
2018-03-28T23:11:24.911Z,99861.25
2018-03-28T23:13:52.513Z,99867.02
2018-03-28T23:16:20.228Z,99874.77
2018-03-28T23:18:47.814Z,99879.09
2018-03-28T23:21:15.652Z,99877.89
2018-03-28T23:23:43.338Z,99880.63
2018-03-28T23:26:10.956Z,99878.80
2018-03-28T23:28:38.571Z,99885.62
2018-03-28T23:31:06.176Z,99881.71
2018-03-28T23:33:33.787Z,99884.07
2018-03-28T23:36:01.428Z,99883.31
2018-03-28T23:38:29.000Z,99882.61
2018-03-28T23:40:56.645Z,99893.16
2018-03-28T23:43:24.324Z,99896.75
2018-03-28T23:45:51.901Z,99904.77
2018-03-28T23:48:19.539Z,99911.09
2018-03-28T23:50:47.142Z,99912.52
2018-03-28T23:53:14.852Z,99916.28
2018-03-28T23:55:42.433Z,99919.72
2018-03-28T23:58:10.089Z,99921.32
